sensor_id;sensor_type;location;lat;lon;timestamp;temperature;humidity
65046;DHT22;54657;52.022;5.534;2022-08-01T00:00:54;20.60;78.20
65046;DHT22;54657;52.022;5.534;2022-08-01T00:03:20;20.70;78.20
65046;DHT22;54657;52.022;5.534;2022-08-01T00:05:46;20.70;78.10
65046;DHT22;54657;52.022;5.534;2022-08-01T00:08:15;20.70;78.10
65046;DHT22;54657;52.022;5.534;2022-08-01T00:10:41;20.70;78.20
65046;DHT22;54657;52.022;5.534;2022-08-01T00:13:06;20.70;78.00
65046;DHT22;54657;52.022;5.534;2022-08-01T00:15:32;20.70;78.20
65046;DHT22;54657;52.022;5.534;2022-08-01T00:17:59;20.70;78.10
65046;DHT22;54657;52.022;5.534;2022-08-01T00:20:24;20.70;77.90
65046;DHT22;54657;52.022;5.534;2022-08-01T00:22:50;20.70;77.80
65046;DHT22;54657;52.022;5.534;2022-08-01T00:25:15;20.70;78.00
65046;DHT22;54657;52.022;5.534;2022-08-01T00:27:41;20.60;78.20
65046;DHT22;54657;52.022;5.534;2022-08-01T00:30:07;20.60;78.10
65046;DHT22;54657;52.022;5.534;2022-08-01T00:32:32;20.70;78.20
65046;DHT22;54657;52.022;5.534;2022-08-01T00:34:58;20.70;78.00
65046;DHT22;54657;52.022;5.534;2022-08-01T00:37:23;20.70;77.90
65046;DHT22;54657;52.022;5.534;2022-08-01T00:39:49;20.70;77.90
65046;DHT22;54657;52.022;5.534;2022-08-01T00:42:14;20.70;78.00
65046;DHT22;54657;52.022;5.534;2022-08-01T00:44:40;20.70;78.00
65046;DHT22;54657;52.022;5.534;2022-08-01T00:47:06;20.70;77.80
65046;DHT22;54657;52.022;5.534;2022-08-01T00:49:32;20.70;78.00
65046;DHT22;54657;52.022;5.534;2022-08-01T00:51:58;20.60;78.00
65046;DHT22;54657;52.022;5.534;2022-08-01T00:54:25;20.60;78.70
65046;DHT22;54657;52.022;5.534;2022-08-01T00:56:52;20.70;78.00
65046;DHT22;54657;52.022;5.534;2022-08-01T00:59:18;20.70;77.80
65046;DHT22;54657;52.022;5.534;2022-08-01T01:01:44;20.70;77.90
65046;DHT22;54657;52.022;5.534;2022-08-01T01:04:09;20.70;77.90
65046;DHT22;54657;52.022;5.534;2022-08-01T01:14:44;20.70;78.00
65046;DHT22;54657;52.022;5.534;2022-08-01T01:17:14;20.80;78.10
65046;DHT22;54657;52.022;5.534;2022-08-01T01:19:47;20.80;77.80
65046;DHT22;54657;52.022;5.534;2022-08-01T01:31:13;20.70;78.50
65046;DHT22;54657;52.022;5.534;2022-08-01T01:33:40;20.60;78.20
65046;DHT22;54657;52.022;5.534;2022-08-01T01:36:09;20.70;78.20
65046;DHT22;54657;52.022;5.534;2022-08-01T01:38:39;20.60;78.30
65046;DHT22;54657;52.022;5.534;2022-08-01T01:41:08;20.60;78.30
65046;DHT22;54657;52.022;5.534;2022-08-01T01:43:35;20.70;78.40
65046;DHT22;54657;52.022;5.534;2022-08-01T01:46:03;20.60;78.40
65046;DHT22;54657;52.022;5.534;2022-08-01T01:48:29;20.60;78.40
65046;DHT22;54657;52.022;5.534;2022-08-01T01:50:56;20.70;78.30
65046;DHT22;54657;52.022;5.534;2022-08-01T01:53:23;20.70;78.20
65046;DHT22;54657;52.022;5.534;2022-08-01T01:55:53;20.70;78.20
65046;DHT22;54657;52.022;5.534;2022-08-01T01:58:27;20.70;78.20
65046;DHT22;54657;52.022;5.534;2022-08-01T02:00:55;20.70;78.20
65046;DHT22;54657;52.022;5.534;2022-08-01T02:03:22;20.70;78.20
65046;DHT22;54657;52.022;5.534;2022-08-01T02:05:52;20.70;78.20
65046;DHT22;54657;52.022;5.534;2022-08-01T02:08:18;20.70;78.30
65046;DHT22;54657;52.022;5.534;2022-08-01T02:10:45;20.60;78.50
65046;DHT22;54657;52.022;5.534;2022-08-01T02:13:33;20.60;78.50
65046;DHT22;54657;52.022;5.534;2022-08-01T02:16:00;20.60;78.60
65046;DHT22;54657;52.022;5.534;2022-08-01T02:18:26;20.50;78.80
65046;DHT22;54657;52.022;5.534;2022-08-01T02:20:53;20.50;78.90
65046;DHT22;54657;52.022;5.534;2022-08-01T02:23:20;20.50;79.00
65046;DHT22;54657;52.022;5.534;2022-08-01T02:25:52;20.50;78.90
65046;DHT22;54657;52.022;5.534;2022-08-01T02:28:29;20.50;78.90
65046;DHT22;54657;52.022;5.534;2022-08-01T02:31:04;20.50;79.00
65046;DHT22;54657;52.022;5.534;2022-08-01T02:33:38;20.50;79.00
65046;DHT22;54657;52.022;5.534;2022-08-01T02:36:05;20.50;79.20
65046;DHT22;54657;52.022;5.534;2022-08-01T02:38:35;20.50;79.20
65046;DHT22;54657;52.022;5.534;2022-08-01T02:41:09;20.50;79.30
65046;DHT22;54657;52.022;5.534;2022-08-01T02:43:37;20.50;79.20
65046;DHT22;54657;52.022;5.534;2022-08-01T02:46:05;20.50;79.20
65046;DHT22;54657;52.022;5.534;2022-08-01T02:48:35;20.40;79.40
65046;DHT22;54657;52.022;5.534;2022-08-01T02:51:02;20.40;79.60
65046;DHT22;54657;52.022;5.534;2022-08-01T02:53:31;20.30;79.70
65046;DHT22;54657;52.022;5.534;2022-08-01T02:56:00;20.30;80.20
65046;DHT22;54657;52.022;5.534;2022-08-01T02:58:27;20.30;80.10
65046;DHT22;54657;52.022;5.534;2022-08-01T03:00:53;20.20;80.20
65046;DHT22;54657;52.022;5.534;2022-08-01T03:03:28;20.30;80.10
65046;DHT22;54657;52.022;5.534;2022-08-01T03:05:54;20.30;79.80
65046;DHT22;54657;52.022;5.534;2022-08-01T03:08:22;20.40;79.80
65046;DHT22;54657;52.022;5.534;2022-08-01T03:10:49;20.40;79.90
65046;DHT22;54657;52.022;5.534;2022-08-01T03:13:19;20.30;79.80
65046;DHT22;54657;52.022;5.534;2022-08-01T03:15:47;20.30;79.70
65046;DHT22;54657;52.022;5.534;2022-08-01T03:18:18;20.30;80.00
65046;DHT22;54657;52.022;5.534;2022-08-01T03:20:54;20.30;80.00
65046;DHT22;54657;52.022;5.534;2022-08-01T03:23:21;20.30;80.00
65046;DHT22;54657;52.022;5.534;2022-08-01T03:25:49;20.30;79.70
65046;DHT22;54657;52.022;5.534;2022-08-01T03:28:17;20.40;79.90
65046;DHT22;54657;52.022;5.534;2022-08-01T03:30:44;20.40;79.70
65046;DHT22;54657;52.022;5.534;2022-08-01T03:33:10;20.40;79.60
65046;DHT22;54657;52.022;5.534;2022-08-01T03:35:39;20.40;79.50
65046;DHT22;54657;52.022;5.534;2022-08-01T03:38:09;20.50;79.50
65046;DHT22;54657;52.022;5.534;2022-08-01T03:41:09;20.50;79.30
65046;DHT22;54657;52.022;5.534;2022-08-01T03:43:46;20.50;79.60
65046;DHT22;54657;52.022;5.534;2022-08-01T03:46:19;20.50;79.50
65046;DHT22;54657;52.022;5.534;2022-08-01T03:48:47;20.50;79.30
65046;DHT22;54657;52.022;5.534;2022-08-01T03:51:14;20.40;80.20
65046;DHT22;54657;52.022;5.534;2022-08-01T03:53:42;20.40;79.40
65046;DHT22;54657;52.022;5.534;2022-08-01T03:56:08;20.40;79.40
65046;DHT22;54657;52.022;5.534;2022-08-01T03:58:36;20.50;79.30
65046;DHT22;54657;52.022;5.534;2022-08-01T04:01:04;20.50;79.30
65046;DHT22;54657;52.022;5.534;2022-08-01T04:03:30;20.40;79.20
65046;DHT22;54657;52.022;5.534;2022-08-01T04:05:57;20.40;79.40
65046;DHT22;54657;52.022;5.534;2022-08-01T04:08:23;20.30;79.60
65046;DHT22;54657;52.022;5.534;2022-08-01T04:10:48;20.30;79.70
65046;DHT22;54657;52.022;5.534;2022-08-01T04:13:14;20.30;79.90
65046;DHT22;54657;52.022;5.534;2022-08-01T04:15:40;20.30;79.80
65046;DHT22;54657;52.022;5.534;2022-08-01T04:18:05;20.30;80.00
65046;DHT22;54657;52.022;5.534;2022-08-01T04:20:32;20.30;79.90
65046;DHT22;54657;52.022;5.534;2022-08-01T04:22:58;20.30;80.00
65046;DHT22;54657;52.022;5.534;2022-08-01T04:25:31;20.30;80.10
65046;DHT22;54657;52.022;5.534;2022-08-01T04:27:58;20.30;80.20
65046;DHT22;54657;52.022;5.534;2022-08-01T04:30:30;20.30;80.10
65046;DHT22;54657;52.022;5.534;2022-08-01T04:32:57;20.30;80.20
65046;DHT22;54657;52.022;5.534;2022-08-01T04:35:25;20.20;80.20
65046;DHT22;54657;52.022;5.534;2022-08-01T04:37:52;20.20;80.30
65046;DHT22;54657;52.022;5.534;2022-08-01T04:40:19;20.20;80.40
65046;DHT22;54657;52.022;5.534;2022-08-01T04:42:50;20.20;80.40
65046;DHT22;54657;52.022;5.534;2022-08-01T04:45:16;20.20;80.30
65046;DHT22;54657;52.022;5.534;2022-08-01T04:47:43;20.20;80.40
65046;DHT22;54657;52.022;5.534;2022-08-01T04:50:09;20.20;80.40
65046;DHT22;54657;52.022;5.534;2022-08-01T04:52:36;20.30;80.40
65046;DHT22;54657;52.022;5.534;2022-08-01T04:55:04;20.30;80.30
65046;DHT22;54657;52.022;5.534;2022-08-01T04:57:33;20.30;80.40
65046;DHT22;54657;52.022;5.534;2022-08-01T05:00:02;20.30;80.40
65046;DHT22;54657;52.022;5.534;2022-08-01T05:02:28;20.30;80.30
65046;DHT22;54657;52.022;5.534;2022-08-01T05:04:54;20.30;80.40
65046;DHT22;54657;52.022;5.534;2022-08-01T05:07:21;20.30;80.50
65046;DHT22;54657;52.022;5.534;2022-08-01T05:09:46;20.30;80.60
65046;DHT22;54657;52.022;5.534;2022-08-01T05:12:12;20.30;80.50
65046;DHT22;54657;52.022;5.534;2022-08-01T05:14:38;20.30;80.40
65046;DHT22;54657;52.022;5.534;2022-08-01T05:17:06;20.20;80.60
65046;DHT22;54657;52.022;5.534;2022-08-01T05:19:33;20.20;80.80
65046;DHT22;54657;52.022;5.534;2022-08-01T05:21:59;20.10;81.10
65046;DHT22;54657;52.022;5.534;2022-08-01T05:24:27;20.10;81.10
65046;DHT22;54657;52.022;5.534;2022-08-01T05:26:54;20.00;81.30
65046;DHT22;54657;52.022;5.534;2022-08-01T05:29:20;20.00;81.40
65046;DHT22;54657;52.022;5.534;2022-08-01T05:31:45;19.90;81.40
65046;DHT22;54657;52.022;5.534;2022-08-01T05:34:11;19.90;81.30
65046;DHT22;54657;52.022;5.534;2022-08-01T05:36:36;19.90;81.50
65046;DHT22;54657;52.022;5.534;2022-08-01T05:39:03;19.80;81.50
65046;DHT22;54657;52.022;5.534;2022-08-01T05:41:29;19.80;81.40
65046;DHT22;54657;52.022;5.534;2022-08-01T05:43:55;19.70;81.30
65046;DHT22;54657;52.022;5.534;2022-08-01T05:46:21;19.70;81.30
65046;DHT22;54657;52.022;5.534;2022-08-01T05:48:46;19.70;81.20
65046;DHT22;54657;52.022;5.534;2022-08-01T05:51:12;19.70;81.00
65046;DHT22;54657;52.022;5.534;2022-08-01T05:53:37;19.70;80.90
65046;DHT22;54657;52.022;5.534;2022-08-01T05:56:03;19.70;80.80
65046;DHT22;54657;52.022;5.534;2022-08-01T05:58:28;19.70;80.80
65046;DHT22;54657;52.022;5.534;2022-08-01T06:00:54;19.80;80.60
65046;DHT22;54657;52.022;5.534;2022-08-01T06:03:20;19.80;80.50
65046;DHT22;54657;52.022;5.534;2022-08-01T06:05:45;19.80;80.60
65046;DHT22;54657;52.022;5.534;2022-08-01T06:08:11;19.80;80.60
65046;DHT22;54657;52.022;5.534;2022-08-01T06:10:36;19.80;80.60
65046;DHT22;54657;52.022;5.534;2022-08-01T06:13:02;19.80;80.50
65046;DHT22;54657;52.022;5.534;2022-08-01T06:15:29;19.80;80.50
65046;DHT22;54657;52.022;5.534;2022-08-01T06:17:55;19.90;80.20
65046;DHT22;54657;52.022;5.534;2022-08-01T06:20:21;19.90;80.00
65046;DHT22;54657;52.022;5.534;2022-08-01T06:22:46;19.80;80.10
65046;DHT22;54657;52.022;5.534;2022-08-01T06:25:12;19.80;80.30
65046;DHT22;54657;52.022;5.534;2022-08-01T06:27:38;19.80;80.10
65046;DHT22;54657;52.022;5.534;2022-08-01T06:30:06;19.80;80.10
65046;DHT22;54657;52.022;5.534;2022-08-01T06:32:33;19.80;80.10
65046;DHT22;54657;52.022;5.534;2022-08-01T06:34:58;19.90;79.80
65046;DHT22;54657;52.022;5.534;2022-08-01T06:37:31;19.90;79.70
65046;DHT22;54657;52.022;5.534;2022-08-01T06:40:05;20.00;79.80
65046;DHT22;54657;52.022;5.534;2022-08-01T06:42:31;20.10;79.60
65046;DHT22;54657;52.022;5.534;2022-08-01T06:47:28;20.10;79.40
65046;DHT22;54657;52.022;5.534;2022-08-01T06:49:54;20.10;79.50
65046;DHT22;54657;52.022;5.534;2022-08-01T06:52:19;20.00;79.40
65046;DHT22;54657;52.022;5.534;2022-08-01T06:54:45;20.00;79.70
65046;DHT22;54657;52.022;5.534;2022-08-01T06:57:10;20.00;80.00
65046;DHT22;54657;52.022;5.534;2022-08-01T06:59:36;20.00;80.10
65046;DHT22;54657;52.022;5.534;2022-08-01T07:02:02;20.10;79.90
65046;DHT22;54657;52.022;5.534;2022-08-01T07:04:28;20.20;79.80
65046;DHT22;54657;52.022;5.534;2022-08-01T07:06:53;20.30;79.90
65046;DHT22;54657;52.022;5.534;2022-08-01T07:09:19;20.30;79.60
65046;DHT22;54657;52.022;5.534;2022-08-01T07:11:44;20.40;79.70
65046;DHT22;54657;52.022;5.534;2022-08-01T07:14:10;20.40;79.60
65046;DHT22;54657;52.022;5.534;2022-08-01T07:16:36;20.40;79.70
65046;DHT22;54657;52.022;5.534;2022-08-01T07:19:01;20.40;79.40
65046;DHT22;54657;52.022;5.534;2022-08-01T07:21:29;20.50;79.30
65046;DHT22;54657;52.022;5.534;2022-08-01T07:23:55;20.60;79.10
65046;DHT22;54657;52.022;5.534;2022-08-01T07:26:20;20.60;78.90
65046;DHT22;54657;52.022;5.534;2022-08-01T07:28:46;20.60;78.90
65046;DHT22;54657;52.022;5.534;2022-08-01T07:31:14;20.60;79.20
65046;DHT22;54657;52.022;5.534;2022-08-01T07:33:40;20.50;79.30
65046;DHT22;54657;52.022;5.534;2022-08-01T07:36:05;20.50;79.60
65046;DHT22;54657;52.022;5.534;2022-08-01T07:38:32;20.50;79.60
65046;DHT22;54657;52.022;5.534;2022-08-01T07:40:57;20.50;79.60
65046;DHT22;54657;52.022;5.534;2022-08-01T07:43:23;20.50;79.60
65046;DHT22;54657;52.022;5.534;2022-08-01T07:45:48;20.60;79.70
65046;DHT22;54657;52.022;5.534;2022-08-01T07:48:14;20.70;79.50
65046;DHT22;54657;52.022;5.534;2022-08-01T07:50:39;20.70;79.40
65046;DHT22;54657;52.022;5.534;2022-08-01T07:53:05;20.70;79.50
65046;DHT22;54657;52.022;5.534;2022-08-01T07:55:31;20.70;79.30
65046;DHT22;54657;52.022;5.534;2022-08-01T07:57:56;20.70;79.40
65046;DHT22;54657;52.022;5.534;2022-08-01T08:00:22;20.80;79.60
65046;DHT22;54657;52.022;5.534;2022-08-01T08:02:48;20.80;79.50
65046;DHT22;54657;52.022;5.534;2022-08-01T08:05:13;20.90;79.20
65046;DHT22;54657;52.022;5.534;2022-08-01T08:07:39;20.80;79.40
65046;DHT22;54657;52.022;5.534;2022-08-01T08:10:05;20.80;79.40
65046;DHT22;54657;52.022;5.534;2022-08-01T08:12:31;20.90;79.40
65046;DHT22;54657;52.022;5.534;2022-08-01T08:14:57;20.90;79.30
65046;DHT22;54657;52.022;5.534;2022-08-01T08:17:25;20.90;79.50
65046;DHT22;54657;52.022;5.534;2022-08-01T08:19:51;20.80;79.70
65046;DHT22;54657;52.022;5.534;2022-08-01T08:22:16;20.70;79.90
65046;DHT22;54657;52.022;5.534;2022-08-01T08:24:42;20.70;79.90
65046;DHT22;54657;52.022;5.534;2022-08-01T08:27:07;20.70;80.20
65046;DHT22;54657;52.022;5.534;2022-08-01T08:29:33;20.50;80.50
65046;DHT22;54657;52.022;5.534;2022-08-01T08:32:00;20.50;80.70
65046;DHT22;54657;52.022;5.534;2022-08-01T08:34:27;20.40;80.80
65046;DHT22;54657;52.022;5.534;2022-08-01T08:36:54;20.40;81.00
65046;DHT22;54657;52.022;5.534;2022-08-01T08:39:20;20.40;80.90
65046;DHT22;54657;52.022;5.534;2022-08-01T08:41:46;20.40;80.80
65046;DHT22;54657;52.022;5.534;2022-08-01T08:44:12;20.40;80.70
65046;DHT22;54657;52.022;5.534;2022-08-01T08:46:44;20.40;80.90
65046;DHT22;54657;52.022;5.534;2022-08-01T08:49:12;20.50;81.60
65046;DHT22;54657;52.022;5.534;2022-08-01T08:51:41;20.40;81.20
65046;DHT22;54657;52.022;5.534;2022-08-01T08:54:10;20.50;80.90
65046;DHT22;54657;52.022;5.534;2022-08-01T08:56:37;20.50;80.70
65046;DHT22;54657;52.022;5.534;2022-08-01T08:59:03;20.50;81.00
65046;DHT22;54657;52.022;5.534;2022-08-01T09:01:31;20.50;80.90
65046;DHT22;54657;52.022;5.534;2022-08-01T09:03:58;20.50;80.70
65046;DHT22;54657;52.022;5.534;2022-08-01T09:06:24;20.60;80.60
65046;DHT22;54657;52.022;5.534;2022-08-01T09:08:50;20.60;80.60
65046;DHT22;54657;52.022;5.534;2022-08-01T09:11:15;20.60;80.70
65046;DHT22;54657;52.022;5.534;2022-08-01T09:13:41;20.50;80.90
65046;DHT22;54657;52.022;5.534;2022-08-01T09:16:06;20.60;80.80
65046;DHT22;54657;52.022;5.534;2022-08-01T09:18:37;20.50;80.70
65046;DHT22;54657;52.022;5.534;2022-08-01T09:21:19;20.40;80.30
65046;DHT22;54657;52.022;5.534;2022-08-01T09:23:48;20.40;80.90
65046;DHT22;54657;52.022;5.534;2022-08-01T09:26:17;20.40;81.00
65046;DHT22;54657;52.022;5.534;2022-08-01T09:28:43;20.40;80.80
65046;DHT22;54657;52.022;5.534;2022-08-01T09:31:13;20.40;80.70
65046;DHT22;54657;52.022;5.534;2022-08-01T09:33:53;20.30;81.50
65046;DHT22;54657;52.022;5.534;2022-08-01T09:36:26;20.40;80.70
65046;DHT22;54657;52.022;5.534;2022-08-01T09:38:53;20.40;80.40
65046;DHT22;54657;52.022;5.534;2022-08-01T09:41:30;20.50;80.80
65046;DHT22;54657;52.022;5.534;2022-08-01T09:43:57;20.50;80.10
65046;DHT22;54657;52.022;5.534;2022-08-01T09:46:23;20.50;79.70
65046;DHT22;54657;52.022;5.534;2022-08-01T09:49:00;20.50;79.80
65046;DHT22;54657;52.022;5.534;2022-08-01T09:51:33;20.40;79.60
65046;DHT22;54657;52.022;5.534;2022-08-01T09:53:59;20.40;79.80
65046;DHT22;54657;52.022;5.534;2022-08-01T09:56:25;20.30;79.90
65046;DHT22;54657;52.022;5.534;2022-08-01T09:58:53;20.30;79.90
65046;DHT22;54657;52.022;5.534;2022-08-01T10:01:22;20.40;79.80
65046;DHT22;54657;52.022;5.534;2022-08-01T10:04:10;20.40;79.40
65046;DHT22;54657;52.022;5.534;2022-08-01T10:06:37;20.40;78.90
65046;DHT22;54657;52.022;5.534;2022-08-01T10:09:03;20.50;79.00
65046;DHT22;54657;52.022;5.534;2022-08-01T10:11:29;20.60;78.20
65046;DHT22;54657;52.022;5.534;2022-08-01T10:13:59;20.50;78.10
65046;DHT22;54657;52.022;5.534;2022-08-01T10:16:26;20.60;78.10
65046;DHT22;54657;52.022;5.534;2022-08-01T10:18:53;20.70;78.20
65046;DHT22;54657;52.022;5.534;2022-08-01T10:21:20;20.70;77.80
65046;DHT22;54657;52.022;5.534;2022-08-01T10:23:46;20.80;77.20
65046;DHT22;54657;52.022;5.534;2022-08-01T10:26:12;20.80;77.20
65046;DHT22;54657;52.022;5.534;2022-08-01T10:28:39;20.70;76.40
65046;DHT22;54657;52.022;5.534;2022-08-01T10:31:07;20.80;77.10
65046;DHT22;54657;52.022;5.534;2022-08-01T10:33:33;20.90;77.20
65046;DHT22;54657;52.022;5.534;2022-08-01T10:36:01;21.00;76.90
65046;DHT22;54657;52.022;5.534;2022-08-01T10:38:28;21.10;76.70
65046;DHT22;54657;52.022;5.534;2022-08-01T10:40:55;21.20;76.20
65046;DHT22;54657;52.022;5.534;2022-08-01T10:43:22;21.30;75.80
65046;DHT22;54657;52.022;5.534;2022-08-01T10:45:51;21.30;75.70
65046;DHT22;54657;52.022;5.534;2022-08-01T10:54:40;21.50;74.20
65046;DHT22;54657;52.022;5.534;2022-08-01T10:57:54;21.40;73.00
65046;DHT22;54657;52.022;5.534;2022-08-01T11:00:29;21.50;74.30
65046;DHT22;54657;52.022;5.534;2022-08-01T11:03:09;21.50;73.40
65046;DHT22;54657;52.022;5.534;2022-08-01T11:05:58;21.60;73.80
65046;DHT22;54657;52.022;5.534;2022-08-01T11:15:28;21.70;72.30
65046;DHT22;54657;52.022;5.534;2022-08-01T11:27:34;22.10;71.50
65046;DHT22;54657;52.022;5.534;2022-08-01T11:32:57;22.00;68.70
65046;DHT22;54657;52.022;5.534;2022-08-01T11:35:24;22.10;69.00
65046;DHT22;54657;52.022;5.534;2022-08-01T11:37:53;22.10;70.80
65046;DHT22;54657;52.022;5.534;2022-08-01T11:40:23;22.20;69.50
65046;DHT22;54657;52.022;5.534;2022-08-01T11:42:50;22.20;69.60
65046;DHT22;54657;52.022;5.534;2022-08-01T11:45:16;22.20;69.70
65046;DHT22;54657;52.022;5.534;2022-08-01T11:47:49;22.20;69.50
65046;DHT22;54657;52.022;5.534;2022-08-01T11:50:35;22.20;68.50
65046;DHT22;54657;52.022;5.534;2022-08-01T11:53:06;22.20;67.90
65046;DHT22;54657;52.022;5.534;2022-08-01T11:55:31;22.20;69.10
65046;DHT22;54657;52.022;5.534;2022-08-01T11:58:00;22.30;69.20
65046;DHT22;54657;52.022;5.534;2022-08-01T12:00:26;22.30;68.40
65046;DHT22;54657;52.022;5.534;2022-08-01T12:02:59;22.30;68.40
65046;DHT22;54657;52.022;5.534;2022-08-01T12:05:26;22.40;67.60
65046;DHT22;54657;52.022;5.534;2022-08-01T12:07:53;22.50;67.90
65046;DHT22;54657;52.022;5.534;2022-08-01T12:10:22;22.50;67.70
65046;DHT22;54657;52.022;5.534;2022-08-01T12:12:50;22.50;67.80
65046;DHT22;54657;52.022;5.534;2022-08-01T12:15:16;22.50;67.80
65046;DHT22;54657;52.022;5.534;2022-08-01T12:20:15;22.50;67.80
65046;DHT22;54657;52.022;5.534;2022-08-01T12:22:41;22.40;65.70
65046;DHT22;54657;52.022;5.534;2022-08-01T12:25:11;22.40;67.40
65046;DHT22;54657;52.022;5.534;2022-08-01T12:27:38;22.50;66.90
65046;DHT22;54657;52.022;5.534;2022-08-01T12:30:09;22.50;66.90
65046;DHT22;54657;52.022;5.534;2022-08-01T12:32:37;22.50;66.10
65046;DHT22;54657;52.022;5.534;2022-08-01T12:37:32;22.50;66.40
65046;DHT22;54657;52.022;5.534;2022-08-01T12:39:57;22.60;66.50
65046;DHT22;54657;52.022;5.534;2022-08-01T12:42:24;22.60;66.10
65046;DHT22;54657;52.022;5.534;2022-08-01T12:44:51;22.70;65.50
65046;DHT22;54657;52.022;5.534;2022-08-01T12:47:18;22.80;65.10
65046;DHT22;54657;52.022;5.534;2022-08-01T12:49:45;22.90;65.70
65046;DHT22;54657;52.022;5.534;2022-08-01T12:52:12;22.90;64.70
65046;DHT22;54657;52.022;5.534;2022-08-01T12:55:07;23.00;64.70
65046;DHT22;54657;52.022;5.534;2022-08-01T12:57:34;23.00;63.40
65046;DHT22;54657;52.022;5.534;2022-08-01T13:00:15;23.00;63.60
65046;DHT22;54657;52.022;5.534;2022-08-01T13:02:43;23.00;58.50
65046;DHT22;54657;52.022;5.534;2022-08-01T13:05:09;23.00;63.60
65046;DHT22;54657;52.022;5.534;2022-08-01T13:07:49;23.10;62.70
65046;DHT22;54657;52.022;5.534;2022-08-01T13:10:27;23.20;60.60
65046;DHT22;54657;52.022;5.534;2022-08-01T13:12:58;23.20;61.40
65046;DHT22;54657;52.022;5.534;2022-08-01T13:15:43;23.20;62.10
65046;DHT22;54657;52.022;5.534;2022-08-01T13:18:26;23.30;55.60
65046;DHT22;54657;52.022;5.534;2022-08-01T13:21:15;23.30;56.60
65046;DHT22;54657;52.022;5.534;2022-08-01T13:23:42;23.40;56.90
65046;DHT22;54657;52.022;5.534;2022-08-01T13:29:05;23.40;60.00
65046;DHT22;54657;52.022;5.534;2022-08-01T13:31:35;23.50;60.00
65046;DHT22;54657;52.022;5.534;2022-08-01T13:34:01;23.40;59.00
65046;DHT22;54657;52.022;5.534;2022-08-01T13:36:27;23.40;60.20
65046;DHT22;54657;52.022;5.534;2022-08-01T13:38:54;23.50;60.40
65046;DHT22;54657;52.022;5.534;2022-08-01T13:41:39;23.50;60.00
65046;DHT22;54657;52.022;5.534;2022-08-01T13:44:04;23.50;60.40
65046;DHT22;54657;52.022;5.534;2022-08-01T13:46:31;23.50;59.60
65046;DHT22;54657;52.022;5.534;2022-08-01T13:48:56;23.60;59.90
65046;DHT22;54657;52.022;5.534;2022-08-01T13:51:22;23.60;59.80
65046;DHT22;54657;52.022;5.534;2022-08-01T13:53:47;23.40;58.80
65046;DHT22;54657;52.022;5.534;2022-08-01T13:56:13;23.40;59.70
65046;DHT22;54657;52.022;5.534;2022-08-01T13:58:38;23.40;59.20
65046;DHT22;54657;52.022;5.534;2022-08-01T14:01:04;23.50;59.10
65046;DHT22;54657;52.022;5.534;2022-08-01T14:03:29;23.50;58.20
65046;DHT22;54657;52.022;5.534;2022-08-01T14:05:56;23.50;59.00
65046;DHT22;54657;52.022;5.534;2022-08-01T14:08:22;23.50;58.70
65046;DHT22;54657;52.022;5.534;2022-08-01T14:10:47;23.50;57.60
65046;DHT22;54657;52.022;5.534;2022-08-01T14:13:13;23.50;58.30
65046;DHT22;54657;52.022;5.534;2022-08-01T14:15:39;23.50;57.40
65046;DHT22;54657;52.022;5.534;2022-08-01T14:18:08;23.50;57.10
65046;DHT22;54657;52.022;5.534;2022-08-01T14:20:34;23.50;57.40
65046;DHT22;54657;52.022;5.534;2022-08-01T14:23:00;23.50;57.10
65046;DHT22;54657;52.022;5.534;2022-08-01T14:25:26;23.60;56.90
65046;DHT22;54657;52.022;5.534;2022-08-01T14:27:51;23.60;56.90
65046;DHT22;54657;52.022;5.534;2022-08-01T14:30:17;23.60;56.90
65046;DHT22;54657;52.022;5.534;2022-08-01T14:32:43;23.60;57.00
65046;DHT22;54657;52.022;5.534;2022-08-01T14:35:08;23.60;57.20
65046;DHT22;54657;52.022;5.534;2022-08-01T14:37:34;23.80;57.20
65046;DHT22;54657;52.022;5.534;2022-08-01T14:40:00;23.90;56.90
65046;DHT22;54657;52.022;5.534;2022-08-01T14:42:30;23.90;56.70
65046;DHT22;54657;52.022;5.534;2022-08-01T14:44:56;23.90;55.40
65046;DHT22;54657;52.022;5.534;2022-08-01T14:47:22;23.70;55.60
65046;DHT22;54657;52.022;5.534;2022-08-01T14:49:48;23.70;55.30
65046;DHT22;54657;52.022;5.534;2022-08-01T14:52:14;23.60;55.00
65046;DHT22;54657;52.022;5.534;2022-08-01T14:54:39;23.60;55.10
65046;DHT22;54657;52.022;5.534;2022-08-01T14:57:05;23.50;54.80
65046;DHT22;54657;52.022;5.534;2022-08-01T14:59:31;23.50;55.00
65046;DHT22;54657;52.022;5.534;2022-08-01T15:01:56;23.50;54.30
65046;DHT22;54657;52.022;5.534;2022-08-01T15:04:22;23.50;55.00
65046;DHT22;54657;52.022;5.534;2022-08-01T15:06:47;23.40;53.60
65046;DHT22;54657;52.022;5.534;2022-08-01T15:09:13;23.40;54.00
65046;DHT22;54657;52.022;5.534;2022-08-01T15:11:38;23.40;53.80
65046;DHT22;54657;52.022;5.534;2022-08-01T15:14:04;23.30;53.80
65046;DHT22;54657;52.022;5.534;2022-08-01T15:16:49;23.30;54.10
65046;DHT22;54657;52.022;5.534;2022-08-01T15:19:15;23.30;53.50
65046;DHT22;54657;52.022;5.534;2022-08-01T15:21:41;23.30;53.50
65046;DHT22;54657;52.022;5.534;2022-08-01T15:24:06;23.30;53.40
65046;DHT22;54657;52.022;5.534;2022-08-01T15:26:32;23.30;53.20
65046;DHT22;54657;52.022;5.534;2022-08-01T15:28:58;23.30;53.30
65046;DHT22;54657;52.022;5.534;2022-08-01T15:31:23;23.20;53.70
65046;DHT22;54657;52.022;5.534;2022-08-01T15:33:49;23.20;53.00
65046;DHT22;54657;52.022;5.534;2022-08-01T15:36:14;23.20;52.80
65046;DHT22;54657;52.022;5.534;2022-08-01T15:38:40;23.10;52.10
65046;DHT22;54657;52.022;5.534;2022-08-01T15:41:06;23.10;52.90
65046;DHT22;54657;52.022;5.534;2022-08-01T15:43:31;23.10;52.60
65046;DHT22;54657;52.022;5.534;2022-08-01T15:45:57;23.00;52.80
65046;DHT22;54657;52.022;5.534;2022-08-01T15:48:23;23.00;52.80
65046;DHT22;54657;52.022;5.534;2022-08-01T15:50:49;23.00;52.10
65046;DHT22;54657;52.022;5.534;2022-08-01T15:53:15;23.00;52.10
65046;DHT22;54657;52.022;5.534;2022-08-01T15:55:41;23.00;51.90
65046;DHT22;54657;52.022;5.534;2022-08-01T15:58:06;23.00;52.10
65046;DHT22;54657;52.022;5.534;2022-08-01T16:00:33;22.90;51.80
65046;DHT22;54657;52.022;5.534;2022-08-01T16:02:59;22.90;51.20
65046;DHT22;54657;52.022;5.534;2022-08-01T16:05:24;22.90;51.00
65046;DHT22;54657;52.022;5.534;2022-08-01T16:07:50;22.90;51.50
65046;DHT22;54657;52.022;5.534;2022-08-01T16:10:15;22.90;51.20
65046;DHT22;54657;52.022;5.534;2022-08-01T16:12:41;22.80;50.80
65046;DHT22;54657;52.022;5.534;2022-08-01T16:15:07;22.80;51.10
65046;DHT22;54657;52.022;5.534;2022-08-01T16:17:33;22.80;50.50
65046;DHT22;54657;52.022;5.534;2022-08-01T16:19:59;22.70;50.90
65046;DHT22;54657;52.022;5.534;2022-08-01T16:22:25;22.70;51.50
65046;DHT22;54657;52.022;5.534;2022-08-01T16:24:54;22.70;51.00
65046;DHT22;54657;52.022;5.534;2022-08-01T16:27:19;22.70;49.70